Jacksonville, Georgia
Current Conditions -  °F | °C
As of 4:55 AM on Sunday 23 Nov 2014 (Local Time) from KFZG Reporting Station
Moderate Rain Moderate Rain  
Wind Chill: 60°   Ceiling: 400
Heat Index: 60°   Visibility: 5mi
Dew Point: 57°   Wind: 9mph
Humidity: 91%   Direction: 80°E
Pressure: 30.04"   Gusts: NA
Location:  31.81°N, 82.98°W
Report Text: KFZG 230955Z AUTO 08008KT 5SM RA BKN004 BKN014 OVC028 15/14 A3004 RMK AO2 T01530139
Loading
Personal Weather Stations






























Interactive Weather Map New forecast layout! Learn more

10-Day Weather Forecast

Advertisements
Track Severe Weather on mobile